KOOA

Details ICAO KOOA
Name OSKALOOSA MUNI
Region United States
Timezone America/Chicago (UTC-5.0)
Plans Departing 0
Arriving 2
Stats Elevation 840 ft / 256 m (AMSL)
Location 41.226766° -92.493894°
Runways 2
Magnetic Variation 0.072° W
Sunrise 2018-05-20 10:48:29 UTC / 2018-05-20 05:48:29 Local
Sunset 2018-05-21 01:27:24 UTC / 2018-05-20 20:27:24 Local
Advertisement - Login to hide

Runways

ID Width Length Bearing (true) Bearing (mag) Surface Threshold Offset Overrun Length
04 75 ft / 23 m 1,933 ft / 589 m 44.24° 44.31° Concrete 0 ft / 0 m 600 ft / 183 m
13 75 ft / 23 m 4,001 ft / 1,220 m 134.66° 134.73° Concrete 0 ft / 0 m 600 ft / 183 m
22 75 ft / 23 m 1,933 ft / 589 m 224.24° 224.31° Concrete 0 ft / 0 m 600 ft / 183 m
31 75 ft / 23 m 4,001 ft / 1,220 m 314.67° 314.74° Concrete 0 ft / 0 m 0 ft / 0 m

Map

Weather


0- 5 10 15 20 25 30 35+ Temperature / ° C

Clouds and Precipitation
Forecast for 2018-05-21 00:00 UTC. Updated an hour ago

Ground ~20,000 ft ~40,000 ft Winds

METAR

KOOA 210015Z AUTO 06010KT 10SM SCT024 SCT035 SCT110 18/14 A3007 RMK AO2 T01770142

TAF

Not found

Frequencies

Recorded 118.62 MHz AWOS 3
Unicom 122.80 MHz CTAF/UNICOM
Warning: Do not use this data for real-world aviation or navigation. No guarantee of current accuracy is given.